sensor_id;sensor_type;location;lat;lon;timestamp;temperature;humidity
4354;DHT22;11018;51.258;6.806;2022-08-03T00:01:34;20.30;57.80
4354;DHT22;11018;51.258;6.806;2022-08-03T00:04:00;20.30;58.10
4354;DHT22;11018;51.258;6.806;2022-08-03T00:06:26;20.10;58.50
4354;DHT22;11018;51.258;6.806;2022-08-03T00:08:51;20.10;58.90
4354;DHT22;11018;51.258;6.806;2022-08-03T00:11:17;20.00;59.10
4354;DHT22;11018;51.258;6.806;2022-08-03T00:13:43;20.10;59.40
4354;DHT22;11018;51.258;6.806;2022-08-03T00:16:09;20.00;59.60
4354;DHT22;11018;51.258;6.806;2022-08-03T00:18:35;20.00;59.90
4354;DHT22;11018;51.258;6.806;2022-08-03T00:21:02;20.00;60.20
4354;DHT22;11018;51.258;6.806;2022-08-03T00:23:28;20.00;60.40
4354;DHT22;11018;51.258;6.806;2022-08-03T00:25:54;20.00;60.20
4354;DHT22;11018;51.258;6.806;2022-08-03T00:28:20;19.90;60.30
4354;DHT22;11018;51.258;6.806;2022-08-03T00:30:46;19.90;60.20
4354;DHT22;11018;51.258;6.806;2022-08-03T00:33:11;19.90;60.00
4354;DHT22;11018;51.258;6.806;2022-08-03T00:35:37;19.90;60.10
4354;DHT22;11018;51.258;6.806;2022-08-03T00:38:03;19.90;59.40
4354;DHT22;11018;51.258;6.806;2022-08-03T00:40:28;19.90;59.20
4354;DHT22;11018;51.258;6.806;2022-08-03T00:42:57;20.00;58.80
4354;DHT22;11018;51.258;6.806;2022-08-03T00:45:25;20.00;58.70
4354;DHT22;11018;51.258;6.806;2022-08-03T00:47:51;20.00;57.50
4354;DHT22;11018;51.258;6.806;2022-08-03T00:50:18;20.10;57.40
4354;DHT22;11018;51.258;6.806;2022-08-03T00:52:44;20.10;56.90
4354;DHT22;11018;51.258;6.806;2022-08-03T00:55:11;20.10;57.20
4354;DHT22;11018;51.258;6.806;2022-08-03T00:57:37;20.10;57.30
4354;DHT22;11018;51.258;6.806;2022-08-03T01:00:05;20.10;57.10
4354;DHT22;11018;51.258;6.806;2022-08-03T01:02:31;20.10;57.60
4354;DHT22;11018;51.258;6.806;2022-08-03T01:04:57;20.00;58.20
4354;DHT22;11018;51.258;6.806;2022-08-03T01:09:59;20.00;58.50
4354;DHT22;11018;51.258;6.806;2022-08-03T01:16:05;19.90;59.10
4354;DHT22;11018;51.258;6.806;2022-08-03T01:18:44;19.90;59.40
4354;DHT22;11018;51.258;6.806;2022-08-03T01:21:15;19.90;60.10
4354;DHT22;11018;51.258;6.806;2022-08-03T01:29:03;19.90;59.00
4354;DHT22;11018;51.258;6.806;2022-08-03T01:31:40;19.90;58.90
4354;DHT22;11018;51.258;6.806;2022-08-03T01:34:11;19.80;59.20
4354;DHT22;11018;51.258;6.806;2022-08-03T01:36:43;19.80;59.60
4354;DHT22;11018;51.258;6.806;2022-08-03T01:39:13;19.70;59.70
4354;DHT22;11018;51.258;6.806;2022-08-03T01:41:45;19.80;59.40
4354;DHT22;11018;51.258;6.806;2022-08-03T01:44:13;19.80;58.40
4354;DHT22;11018;51.258;6.806;2022-08-03T01:46:39;19.80;58.30
4354;DHT22;11018;51.258;6.806;2022-08-03T01:49:08;19.80;58.20
4354;DHT22;11018;51.258;6.806;2022-08-03T01:51:37;19.80;58.10
4354;DHT22;11018;51.258;6.806;2022-08-03T01:54:04;19.90;57.80
4354;DHT22;11018;51.258;6.806;2022-08-03T01:56:30;19.90;57.50
4354;DHT22;11018;51.258;6.806;2022-08-03T01:58:57;19.90;57.00
4354;DHT22;11018;51.258;6.806;2022-08-03T02:01:26;19.90;57.90
4354;DHT22;11018;51.258;6.806;2022-08-03T02:03:53;19.90;57.40
4354;DHT22;11018;51.258;6.806;2022-08-03T02:06:21;19.90;56.60
4354;DHT22;11018;51.258;6.806;2022-08-03T02:08:48;19.90;56.20
4354;DHT22;11018;51.258;6.806;2022-08-03T02:11:15;20.00;55.80
4354;DHT22;11018;51.258;6.806;2022-08-03T02:13:42;19.90;56.10
4354;DHT22;11018;51.258;6.806;2022-08-03T02:16:08;19.90;56.40
4354;DHT22;11018;51.258;6.806;2022-08-03T02:18:35;19.90;56.50
4354;DHT22;11018;51.258;6.806;2022-08-03T02:21:04;19.80;57.10
4354;DHT22;11018;51.258;6.806;2022-08-03T02:23:31;19.80;57.20
4354;DHT22;11018;51.258;6.806;2022-08-03T02:26:00;19.80;56.80
4354;DHT22;11018;51.258;6.806;2022-08-03T02:28:36;19.80;57.50
4354;DHT22;11018;51.258;6.806;2022-08-03T02:31:06;19.70;57.80
4354;DHT22;11018;51.258;6.806;2022-08-03T02:33:40;19.60;58.80
4354;DHT22;11018;51.258;6.806;2022-08-03T02:36:07;19.60;58.90
4354;DHT22;11018;51.258;6.806;2022-08-03T02:38:38;19.60;58.80
4354;DHT22;11018;51.258;6.806;2022-08-03T02:41:10;19.70;58.90
4354;DHT22;11018;51.258;6.806;2022-08-03T02:43:37;19.60;59.20
4354;DHT22;11018;51.258;6.806;2022-08-03T02:46:05;19.60;59.00
4354;DHT22;11018;51.258;6.806;2022-08-03T02:48:33;19.60;58.80
4354;DHT22;11018;51.258;6.806;2022-08-03T02:51:02;19.60;58.90
4354;DHT22;11018;51.258;6.806;2022-08-03T02:53:29;19.60;59.10
4354;DHT22;11018;51.258;6.806;2022-08-03T02:55:56;19.60;59.40
4354;DHT22;11018;51.258;6.806;2022-08-03T02:58:23;19.50;59.30
4354;DHT22;11018;51.258;6.806;2022-08-03T03:00:51;19.50;59.60
4354;DHT22;11018;51.258;6.806;2022-08-03T03:03:17;19.50;59.20
4354;DHT22;11018;51.258;6.806;2022-08-03T03:05:44;19.60;59.00
4354;DHT22;11018;51.258;6.806;2022-08-03T03:08:18;19.70;58.00
4354;DHT22;11018;51.258;6.806;2022-08-03T03:10:45;19.60;59.20
4354;DHT22;11018;51.258;6.806;2022-08-03T03:13:12;19.50;60.70
4354;DHT22;11018;51.258;6.806;2022-08-03T03:15:41;19.40;61.30
4354;DHT22;11018;51.258;6.806;2022-08-03T03:18:08;19.30;62.00
4354;DHT22;11018;51.258;6.806;2022-08-03T03:20:36;19.30;62.30
4354;DHT22;11018;51.258;6.806;2022-08-03T03:23:04;19.30;62.90
4354;DHT22;11018;51.258;6.806;2022-08-03T03:25:31;19.30;63.00
4354;DHT22;11018;51.258;6.806;2022-08-03T03:27:58;19.20;63.30
4354;DHT22;11018;51.258;6.806;2022-08-03T03:30:25;19.30;63.40
4354;DHT22;11018;51.258;6.806;2022-08-03T03:32:50;19.30;62.80
4354;DHT22;11018;51.258;6.806;2022-08-03T03:35:16;19.30;63.10
4354;DHT22;11018;51.258;6.806;2022-08-03T03:37:42;19.30;62.20
4354;DHT22;11018;51.258;6.806;2022-08-03T03:40:08;19.30;62.80
4354;DHT22;11018;51.258;6.806;2022-08-03T03:42:34;19.20;62.90
4354;DHT22;11018;51.258;6.806;2022-08-03T03:45:07;19.20;63.40
4354;DHT22;11018;51.258;6.806;2022-08-03T03:47:33;19.20;63.20
4354;DHT22;11018;51.258;6.806;2022-08-03T03:50:01;19.20;63.40
4354;DHT22;11018;51.258;6.806;2022-08-03T03:52:27;19.20;63.70
4354;DHT22;11018;51.258;6.806;2022-08-03T03:54:53;19.20;62.90
4354;DHT22;11018;51.258;6.806;2022-08-03T03:57:19;19.20;61.80
4354;DHT22;11018;51.258;6.806;2022-08-03T03:59:44;19.20;62.50
4354;DHT22;11018;51.258;6.806;2022-08-03T04:02:11;19.20;63.00
4354;DHT22;11018;51.258;6.806;2022-08-03T04:04:37;19.20;63.40
4354;DHT22;11018;51.258;6.806;2022-08-03T04:07:23;19.20;63.20
4354;DHT22;11018;51.258;6.806;2022-08-03T04:10:13;19.20;62.50
4354;DHT22;11018;51.258;6.806;2022-08-03T04:12:59;19.30;61.80
4354;DHT22;11018;51.258;6.806;2022-08-03T04:15:27;19.20;62.20
4354;DHT22;11018;51.258;6.806;2022-08-03T04:17:55;19.30;62.50
4354;DHT22;11018;51.258;6.806;2022-08-03T04:20:22;19.30;62.50
4354;DHT22;11018;51.258;6.806;2022-08-03T04:22:50;19.30;62.50
4354;DHT22;11018;51.258;6.806;2022-08-03T04:25:17;19.30;61.30
4354;DHT22;11018;51.258;6.806;2022-08-03T04:27:46;19.30;61.20
4354;DHT22;11018;51.258;6.806;2022-08-03T04:30:14;19.30;61.00
4354;DHT22;11018;51.258;6.806;2022-08-03T04:32:41;19.40;60.60
4354;DHT22;11018;51.258;6.806;2022-08-03T04:35:08;19.40;60.50
4354;DHT22;11018;51.258;6.806;2022-08-03T04:37:46;19.50;60.40
4354;DHT22;11018;51.258;6.806;2022-08-03T04:40:27;19.50;60.40
4354;DHT22;11018;51.258;6.806;2022-08-03T04:42:55;19.50;60.20
4354;DHT22;11018;51.258;6.806;2022-08-03T04:45:21;19.50;59.10
4354;DHT22;11018;51.258;6.806;2022-08-03T04:47:49;19.60;58.40
4354;DHT22;11018;51.258;6.806;2022-08-03T04:50:15;19.70;58.20
4354;DHT22;11018;51.258;6.806;2022-08-03T04:52:41;19.70;57.60
4354;DHT22;11018;51.258;6.806;2022-08-03T04:55:07;19.80;57.30
4354;DHT22;11018;51.258;6.806;2022-08-03T04:57:33;19.80;57.30
4354;DHT22;11018;51.258;6.806;2022-08-03T04:59:59;19.80;56.60
4354;DHT22;11018;51.258;6.806;2022-08-03T05:02:24;19.90;56.00
4354;DHT22;11018;51.258;6.806;2022-08-03T05:04:51;19.90;55.40
4354;DHT22;11018;51.258;6.806;2022-08-03T05:07:17;20.00;54.50
4354;DHT22;11018;51.258;6.806;2022-08-03T05:09:43;20.00;54.60
4354;DHT22;11018;51.258;6.806;2022-08-03T05:12:10;20.10;54.70
4354;DHT22;11018;51.258;6.806;2022-08-03T05:14:37;20.10;54.50
4354;DHT22;11018;51.258;6.806;2022-08-03T05:17:07;20.10;54.10
4354;DHT22;11018;51.258;6.806;2022-08-03T05:19:33;20.30;53.40
4354;DHT22;11018;51.258;6.806;2022-08-03T05:21:59;20.40;52.60
4354;DHT22;11018;51.258;6.806;2022-08-03T05:24:25;20.40;51.90
4354;DHT22;11018;51.258;6.806;2022-08-03T05:26:50;20.60;51.20
4354;DHT22;11018;51.258;6.806;2022-08-03T05:29:16;20.60;51.00
4354;DHT22;11018;51.258;6.806;2022-08-03T05:31:41;20.70;50.40
4354;DHT22;11018;51.258;6.806;2022-08-03T05:34:07;20.80;49.90
4354;DHT22;11018;51.258;6.806;2022-08-03T05:36:32;20.80;49.40
4354;DHT22;11018;51.258;6.806;2022-08-03T05:38:58;20.90;49.10
4354;DHT22;11018;51.258;6.806;2022-08-03T05:41:24;20.90;49.50
4354;DHT22;11018;51.258;6.806;2022-08-03T05:43:52;20.90;49.30
4354;DHT22;11018;51.258;6.806;2022-08-03T05:46:18;20.90;49.70
4354;DHT22;11018;51.258;6.806;2022-08-03T05:48:45;21.10;48.50
4354;DHT22;11018;51.258;6.806;2022-08-03T05:51:10;21.20;47.60
4354;DHT22;11018;51.258;6.806;2022-08-03T05:53:36;21.30;47.40
4354;DHT22;11018;51.258;6.806;2022-08-03T05:56:02;21.30;47.00
4354;DHT22;11018;51.258;6.806;2022-08-03T05:58:28;21.30;46.20
4354;DHT22;11018;51.258;6.806;2022-08-03T06:00:55;21.40;45.30
4354;DHT22;11018;51.258;6.806;2022-08-03T06:03:20;21.50;45.20
4354;DHT22;11018;51.258;6.806;2022-08-03T06:05:46;21.60;44.70
4354;DHT22;11018;51.258;6.806;2022-08-03T06:08:12;21.60;44.30
4354;DHT22;11018;51.258;6.806;2022-08-03T06:10:37;21.70;43.90
4354;DHT22;11018;51.258;6.806;2022-08-03T06:13:03;21.80;43.20
4354;DHT22;11018;51.258;6.806;2022-08-03T06:15:29;21.80;43.50
4354;DHT22;11018;51.258;6.806;2022-08-03T06:17:58;22.00;43.00
4354;DHT22;11018;51.258;6.806;2022-08-03T06:20:24;22.10;42.70
4354;DHT22;11018;51.258;6.806;2022-08-03T06:22:50;22.10;42.40
4354;DHT22;11018;51.258;6.806;2022-08-03T06:25:16;22.20;42.00
4354;DHT22;11018;51.258;6.806;2022-08-03T06:27:42;22.20;41.20
4354;DHT22;11018;51.258;6.806;2022-08-03T06:30:10;22.30;40.50
4354;DHT22;11018;51.258;6.806;2022-08-03T06:32:39;22.40;40.10
4354;DHT22;11018;51.258;6.806;2022-08-03T06:35:06;22.50;39.50
4354;DHT22;11018;51.258;6.806;2022-08-03T06:37:43;22.70;38.80
4354;DHT22;11018;51.258;6.806;2022-08-03T06:40:20;22.80;38.70
4354;DHT22;11018;51.258;6.806;2022-08-03T06:42:58;22.90;37.90
4354;DHT22;11018;51.258;6.806;2022-08-03T06:45:24;23.00;37.90
4354;DHT22;11018;51.258;6.806;2022-08-03T06:48:04;23.10;37.50
4354;DHT22;11018;51.258;6.806;2022-08-03T06:50:31;23.10;37.30
4354;DHT22;11018;51.258;6.806;2022-08-03T06:52:57;23.20;36.90
4354;DHT22;11018;51.258;6.806;2022-08-03T06:55:23;23.30;37.30
4354;DHT22;11018;51.258;6.806;2022-08-03T06:57:48;23.40;36.60
4354;DHT22;11018;51.258;6.806;2022-08-03T07:00:14;23.50;36.20
4354;DHT22;11018;51.258;6.806;2022-08-03T07:02:40;23.70;34.80
4354;DHT22;11018;51.258;6.806;2022-08-03T07:05:07;23.70;34.80
4354;DHT22;11018;51.258;6.806;2022-08-03T07:07:32;23.80;34.90
4354;DHT22;11018;51.258;6.806;2022-08-03T07:09:58;23.80;34.10
4354;DHT22;11018;51.258;6.806;2022-08-03T07:12:25;24.00;33.90
4354;DHT22;11018;51.258;6.806;2022-08-03T07:14:51;24.10;33.30
4354;DHT22;11018;51.258;6.806;2022-08-03T07:17:16;24.20;33.20
4354;DHT22;11018;51.258;6.806;2022-08-03T07:19:42;24.30;32.80
4354;DHT22;11018;51.258;6.806;2022-08-03T07:22:08;24.30;32.90
4354;DHT22;11018;51.258;6.806;2022-08-03T07:24:33;24.40;31.90
4354;DHT22;11018;51.258;6.806;2022-08-03T07:26:59;24.50;32.00
4354;DHT22;11018;51.258;6.806;2022-08-03T07:29:25;24.60;31.70
4354;DHT22;11018;51.258;6.806;2022-08-03T07:31:50;24.80;30.70
4354;DHT22;11018;51.258;6.806;2022-08-03T07:34:16;24.90;30.10
4354;DHT22;11018;51.258;6.806;2022-08-03T07:36:41;25.00;29.50
4354;DHT22;11018;51.258;6.806;2022-08-03T07:39:07;25.00;28.60
4354;DHT22;11018;51.258;6.806;2022-08-03T07:41:32;25.00;28.90
4354;DHT22;11018;51.258;6.806;2022-08-03T07:43:58;25.00;28.80
4354;DHT22;11018;51.258;6.806;2022-08-03T07:46:23;25.10;28.30
4354;DHT22;11018;51.258;6.806;2022-08-03T07:48:49;25.20;28.00
4354;DHT22;11018;51.258;6.806;2022-08-03T07:51:15;25.30;28.30
4354;DHT22;11018;51.258;6.806;2022-08-03T07:53:40;25.40;27.70
4354;DHT22;11018;51.258;6.806;2022-08-03T07:56:06;25.40;28.00
4354;DHT22;11018;51.258;6.806;2022-08-03T07:58:32;25.40;28.00
4354;DHT22;11018;51.258;6.806;2022-08-03T08:00:59;25.50;28.00
4354;DHT22;11018;51.258;6.806;2022-08-03T08:03:25;25.50;27.40
4354;DHT22;11018;51.258;6.806;2022-08-03T08:05:51;25.70;26.90
4354;DHT22;11018;51.258;6.806;2022-08-03T08:08:18;25.80;26.00
4354;DHT22;11018;51.258;6.806;2022-08-03T08:10:44;25.90;26.20
4354;DHT22;11018;51.258;6.806;2022-08-03T08:13:10;25.80;26.00
4354;DHT22;11018;51.258;6.806;2022-08-03T08:15:35;25.90;26.10
4354;DHT22;11018;51.258;6.806;2022-08-03T08:18:01;26.00;26.10
4354;DHT22;11018;51.258;6.806;2022-08-03T08:20:29;26.10;25.90
4354;DHT22;11018;51.258;6.806;2022-08-03T08:22:56;26.30;24.80
4354;DHT22;11018;51.258;6.806;2022-08-03T08:25:22;26.20;24.50
4354;DHT22;11018;51.258;6.806;2022-08-03T08:27:48;26.20;24.60
4354;DHT22;11018;51.258;6.806;2022-08-03T08:30:16;26.40;23.60
4354;DHT22;11018;51.258;6.806;2022-08-03T08:32:43;26.50;23.60
4354;DHT22;11018;51.258;6.806;2022-08-03T08:35:10;26.60;23.00
4354;DHT22;11018;51.258;6.806;2022-08-03T08:37:36;26.60;22.60
4354;DHT22;11018;51.258;6.806;2022-08-03T08:40:03;26.70;22.30
4354;DHT22;11018;51.258;6.806;2022-08-03T08:42:30;26.80;21.90
4354;DHT22;11018;51.258;6.806;2022-08-03T08:44:56;26.90;21.50
4354;DHT22;11018;51.258;6.806;2022-08-03T08:47:28;27.00;22.00
4354;DHT22;11018;51.258;6.806;2022-08-03T08:49:57;27.20;21.00
4354;DHT22;11018;51.258;6.806;2022-08-03T08:52:27;27.20;20.40
4354;DHT22;11018;51.258;6.806;2022-08-03T08:54:58;27.40;20.00
4354;DHT22;11018;51.258;6.806;2022-08-03T08:57:29;27.30;20.00
4354;DHT22;11018;51.258;6.806;2022-08-03T08:59:56;27.40;19.50
4354;DHT22;11018;51.258;6.806;2022-08-03T09:02:23;27.40;20.00
4354;DHT22;11018;51.258;6.806;2022-08-03T09:04:49;27.40;20.00
4354;DHT22;11018;51.258;6.806;2022-08-03T09:07:15;27.50;19.90
4354;DHT22;11018;51.258;6.806;2022-08-03T09:09:41;27.50;19.10
4354;DHT22;11018;51.258;6.806;2022-08-03T09:12:07;27.50;18.90
4354;DHT22;11018;51.258;6.806;2022-08-03T09:14:33;27.50;19.50
4354;DHT22;11018;51.258;6.806;2022-08-03T09:17:00;27.60;19.20
4354;DHT22;11018;51.258;6.806;2022-08-03T09:19:30;27.60;19.30
4354;DHT22;11018;51.258;6.806;2022-08-03T09:22:16;27.70;18.50
4354;DHT22;11018;51.258;6.806;2022-08-03T09:24:57;27.80;18.30
4354;DHT22;11018;51.258;6.806;2022-08-03T09:27:23;27.90;18.20
4354;DHT22;11018;51.258;6.806;2022-08-03T09:29:51;28.00;18.50
4354;DHT22;11018;51.258;6.806;2022-08-03T09:32:21;28.10;18.30
4354;DHT22;11018;51.258;6.806;2022-08-03T09:34:48;28.20;17.80
4354;DHT22;11018;51.258;6.806;2022-08-03T09:37:16;28.20;18.10
4354;DHT22;11018;51.258;6.806;2022-08-03T09:39:42;28.40;17.40
4354;DHT22;11018;51.258;6.806;2022-08-03T09:42:14;28.60;17.90
4354;DHT22;11018;51.258;6.806;2022-08-03T09:44:44;28.60;17.20
4354;DHT22;11018;51.258;6.806;2022-08-03T09:47:12;28.60;17.10
4354;DHT22;11018;51.258;6.806;2022-08-03T09:49:39;28.70;16.10
4354;DHT22;11018;51.258;6.806;2022-08-03T09:52:16;28.80;16.00
4354;DHT22;11018;51.258;6.806;2022-08-03T09:54:43;28.90;15.10
4354;DHT22;11018;51.258;6.806;2022-08-03T09:57:23;29.10;15.20
4354;DHT22;11018;51.258;6.806;2022-08-03T09:59:50;29.10;14.70
4354;DHT22;11018;51.258;6.806;2022-08-03T10:02:23;29.20;14.90
4354;DHT22;11018;51.258;6.806;2022-08-03T10:04:50;29.20;14.30
4354;DHT22;11018;51.258;6.806;2022-08-03T10:07:18;29.20;14.70
4354;DHT22;11018;51.258;6.806;2022-08-03T10:09:59;29.20;14.70
4354;DHT22;11018;51.258;6.806;2022-08-03T10:12:25;29.10;14.80
4354;DHT22;11018;51.258;6.806;2022-08-03T10:14:51;29.10;14.50
4354;DHT22;11018;51.258;6.806;2022-08-03T10:17:18;29.20;15.30
4354;DHT22;11018;51.258;6.806;2022-08-03T10:19:44;29.10;14.60
4354;DHT22;11018;51.258;6.806;2022-08-03T10:22:13;29.20;14.50
4354;DHT22;11018;51.258;6.806;2022-08-03T10:24:45;29.30;14.30
4354;DHT22;11018;51.258;6.806;2022-08-03T10:27:12;29.30;13.80
4354;DHT22;11018;51.258;6.806;2022-08-03T10:29:44;29.20;13.90
4354;DHT22;11018;51.258;6.806;2022-08-03T10:32:30;29.20;14.30
4354;DHT22;11018;51.258;6.806;2022-08-03T10:35:18;29.20;14.10
4354;DHT22;11018;51.258;6.806;2022-08-03T10:38:00;29.30;13.50
4354;DHT22;11018;51.258;6.806;2022-08-03T10:40:29;29.40;13.40
4354;DHT22;11018;51.258;6.806;2022-08-03T10:43:00;29.50;13.40
4354;DHT22;11018;51.258;6.806;2022-08-03T10:45:27;29.50;13.50
4354;DHT22;11018;51.258;6.806;2022-08-03T10:47:56;29.60;13.40
4354;DHT22;11018;51.258;6.806;2022-08-03T10:50:23;29.50;12.90
4354;DHT22;11018;51.258;6.806;2022-08-03T10:52:56;29.60;13.30
4354;DHT22;11018;51.258;6.806;2022-08-03T10:55:29;29.90;12.80
4354;DHT22;11018;51.258;6.806;2022-08-03T10:58:13;29.90;12.60
4354;DHT22;11018;51.258;6.806;2022-08-03T11:00:49;30.00;12.40
4354;DHT22;11018;51.258;6.806;2022-08-03T11:03:15;30.30;11.70
4354;DHT22;11018;51.258;6.806;2022-08-03T11:05:46;30.40;12.30
4354;DHT22;11018;51.258;6.806;2022-08-03T11:08:30;30.40;11.60
4354;DHT22;11018;51.258;6.806;2022-08-03T11:11:02;30.40;11.60
4354;DHT22;11018;51.258;6.806;2022-08-03T11:13:29;30.40;11.80
4354;DHT22;11018;51.258;6.806;2022-08-03T11:15:57;30.30;12.10
4354;DHT22;11018;51.258;6.806;2022-08-03T11:18:23;30.30;11.10
4354;DHT22;11018;51.258;6.806;2022-08-03T11:20:57;30.30;11.10
4354;DHT22;11018;51.258;6.806;2022-08-03T11:23:45;30.20;12.30
4354;DHT22;11018;51.258;6.806;2022-08-03T11:28:43;30.40;11.50
4354;DHT22;11018;51.258;6.806;2022-08-03T11:34:07;30.70;10.70
4354;DHT22;11018;51.258;6.806;2022-08-03T11:39:40;30.70;10.20
4354;DHT22;11018;51.258;6.806;2022-08-03T11:44:58;30.90;9.70
4354;DHT22;11018;51.258;6.806;2022-08-03T11:47:26;31.10;9.70
4354;DHT22;11018;51.258;6.806;2022-08-03T11:49:59;31.10;9.00
4354;DHT22;11018;51.258;6.806;2022-08-03T11:52:26;31.10;8.70
4354;DHT22;11018;51.258;6.806;2022-08-03T11:54:58;31.10;9.00
4354;DHT22;11018;51.258;6.806;2022-08-03T11:57:34;31.20;8.90
4354;DHT22;11018;51.258;6.806;2022-08-03T12:00:00;31.30;8.60
4354;DHT22;11018;51.258;6.806;2022-08-03T12:02:26;31.40;9.20
4354;DHT22;11018;51.258;6.806;2022-08-03T12:04:54;31.60;9.00
4354;DHT22;11018;51.258;6.806;2022-08-03T12:07:23;31.60;8.60
4354;DHT22;11018;51.258;6.806;2022-08-03T12:10:09;31.60;8.20
4354;DHT22;11018;51.258;6.806;2022-08-03T12:12:35;31.70;8.40
4354;DHT22;11018;51.258;6.806;2022-08-03T12:15:01;31.80;8.30
4354;DHT22;11018;51.258;6.806;2022-08-03T12:17:36;31.90;7.90
4354;DHT22;11018;51.258;6.806;2022-08-03T12:20:04;32.00;7.80
4354;DHT22;11018;51.258;6.806;2022-08-03T12:22:38;32.30;7.70
4354;DHT22;11018;51.258;6.806;2022-08-03T12:25:05;32.50;7.50
4354;DHT22;11018;51.258;6.806;2022-08-03T12:27:31;32.50;6.30
4354;DHT22;11018;51.258;6.806;2022-08-03T12:29:58;32.60;6.00
4354;DHT22;11018;51.258;6.806;2022-08-03T12:32:26;32.90;5.80
4354;DHT22;11018;51.258;6.806;2022-08-03T12:34:51;33.10;6.50
4354;DHT22;11018;51.258;6.806;2022-08-03T12:37:21;33.00;6.00
4354;DHT22;11018;51.258;6.806;2022-08-03T12:39:55;32.90;6.70
4354;DHT22;11018;51.258;6.806;2022-08-03T12:42:20;32.80;5.50
4354;DHT22;11018;51.258;6.806;2022-08-03T12:44:46;32.90;5.70
4354;DHT22;11018;51.258;6.806;2022-08-03T12:47:14;32.80;6.30
4354;DHT22;11018;51.258;6.806;2022-08-03T12:49:45;32.80;6.40
4354;DHT22;11018;51.258;6.806;2022-08-03T12:52:11;32.60;6.00
4354;DHT22;11018;51.258;6.806;2022-08-03T12:54:37;32.50;6.40
4354;DHT22;11018;51.258;6.806;2022-08-03T12:57:10;32.40;6.20
4354;DHT22;11018;51.258;6.806;2022-08-03T12:59:41;32.10;7.30
4354;DHT22;11018;51.258;6.806;2022-08-03T13:02:18;32.30;7.10
4354;DHT22;11018;51.258;6.806;2022-08-03T13:04:46;32.50;6.30
4354;DHT22;11018;51.258;6.806;2022-08-03T13:07:12;32.50;5.90
4354;DHT22;11018;51.258;6.806;2022-08-03T13:09:47;32.50;6.20
4354;DHT22;11018;51.258;6.806;2022-08-03T13:12:14;32.60;6.80
4354;DHT22;11018;51.258;6.806;2022-08-03T13:14:41;32.80;6.10
4354;DHT22;11018;51.258;6.806;2022-08-03T13:17:07;32.90;5.90
4354;DHT22;11018;51.258;6.806;2022-08-03T13:19:34;32.80;5.20
4354;DHT22;11018;51.258;6.806;2022-08-03T13:22:19;32.70;4.90
4354;DHT22;11018;51.258;6.806;2022-08-03T13:24:50;32.60;5.30
4354;DHT22;11018;51.258;6.806;2022-08-03T13:27:16;32.60;5.40
4354;DHT22;11018;51.258;6.806;2022-08-03T13:29:42;32.60;5.10
4354;DHT22;11018;51.258;6.806;2022-08-03T13:32:08;33.20;4.60
4354;DHT22;11018;51.258;6.806;2022-08-03T13:34:34;33.70;3.60
4354;DHT22;11018;51.258;6.806;2022-08-03T13:36:59;34.40;3.60
4354;DHT22;11018;51.258;6.806;2022-08-03T13:39:25;35.00;2.20
4354;DHT22;11018;51.258;6.806;2022-08-03T13:41:50;35.30;1.60
4354;DHT22;11018;51.258;6.806;2022-08-03T13:44:17;35.40;1.00
4354;DHT22;11018;51.258;6.806;2022-08-03T13:46:44;35.60;1.00
4354;DHT22;11018;51.258;6.806;2022-08-03T13:49:10;36.20;1.00
4354;DHT22;11018;51.258;6.806;2022-08-03T13:51:35;36.90;1.00
4354;DHT22;11018;51.258;6.806;2022-08-03T13:54:01;37.20;1.00
4354;DHT22;11018;51.258;6.806;2022-08-03T13:56:27;37.60;1.00
4354;DHT22;11018;51.258;6.806;2022-08-03T13:58:54;37.50;1.00
4354;DHT22;11018;51.258;6.806;2022-08-03T14:01:20;37.10;1.00
4354;DHT22;11018;51.258;6.806;2022-08-03T14:03:45;37.40;1.00
4354;DHT22;11018;51.258;6.806;2022-08-03T14:06:13;37.70;1.00
4354;DHT22;11018;51.258;6.806;2022-08-03T14:08:39;38.10;1.00
4354;DHT22;11018;51.258;6.806;2022-08-03T14:11:05;38.00;1.00
4354;DHT22;11018;51.258;6.806;2022-08-03T14:13:30;38.10;1.00
4354;DHT22;11018;51.258;6.806;2022-08-03T14:15:56;38.70;1.00
4354;DHT22;11018;51.258;6.806;2022-08-03T14:18:21;39.00;1.00
4354;DHT22;11018;51.258;6.806;2022-08-03T14:20:47;39.30;1.00
4354;DHT22;11018;51.258;6.806;2022-08-03T14:23:13;39.20;1.00
4354;DHT22;11018;51.258;6.806;2022-08-03T14:25:39;38.90;1.00
4354;DHT22;11018;51.258;6.806;2022-08-03T14:28:06;39.00;1.00
4354;DHT22;11018;51.258;6.806;2022-08-03T14:30:32;39.00;1.00
4354;DHT22;11018;51.258;6.806;2022-08-03T14:32:58;38.90;1.00
4354;DHT22;11018;51.258;6.806;2022-08-03T14:35:23;38.90;1.00
4354;DHT22;11018;51.258;6.806;2022-08-03T14:37:49;38.60;1.00
4354;DHT22;11018;51.258;6.806;2022-08-03T14:40:16;38.90;1.00
4354;DHT22;11018;51.258;6.806;2022-08-03T14:42:42;38.90;1.00
4354;DHT22;11018;51.258;6.806;2022-08-03T14:45:07;38.70;1.00
4354;DHT22;11018;51.258;6.806;2022-08-03T14:47:33;38.00;1.00
4354;DHT22;11018;51.258;6.806;2022-08-03T14:49:59;36.30;1.00
4354;DHT22;11018;51.258;6.806;2022-08-03T14:52:24;35.70;1.00
4354;DHT22;11018;51.258;6.806;2022-08-03T14:54:50;35.20;1.00
4354;DHT22;11018;51.258;6.806;2022-08-03T14:57:16;35.40;1.00
4354;DHT22;11018;51.258;6.806;2022-08-03T14:59:41;35.30;1.00
4354;DHT22;11018;51.258;6.806;2022-08-03T15:02:07;35.70;1.00
4354;DHT22;11018;51.258;6.806;2022-08-03T15:04:32;34.90;1.00
4354;DHT22;11018;51.258;6.806;2022-08-03T15:06:58;33.80;1.00
4354;DHT22;11018;51.258;6.806;2022-08-03T15:09:24;33.50;1.70
4354;DHT22;11018;51.258;6.806;2022-08-03T15:11:49;33.40;1.60
4354;DHT22;11018;51.258;6.806;2022-08-03T15:14:15;33.40;1.50
4354;DHT22;11018;51.258;6.806;2022-08-03T15:16:41;33.60;1.00
4354;DHT22;11018;51.258;6.806;2022-08-03T15:19:06;34.20;1.00
4354;DHT22;11018;51.258;6.806;2022-08-03T15:21:32;34.40;1.00
4354;DHT22;11018;51.258;6.806;2022-08-03T15:23:58;34.60;1.00
4354;DHT22;11018;51.258;6.806;2022-08-03T15:26:23;34.60;1.00
4354;DHT22;11018;51.258;6.806;2022-08-03T15:28:49;35.70;1.00
4354;DHT22;11018;51.258;6.806;2022-08-03T15:31:18;36.30;1.00
4354;DHT22;11018;51.258;6.806;2022-08-03T15:33:44;36.50;1.00
4354;DHT22;11018;51.258;6.806;2022-08-03T15:36:09;36.80;1.00
4354;DHT22;11018;51.258;6.806;2022-08-03T15:38:35;36.30;1.00
4354;DHT22;11018;51.258;6.806;2022-08-03T15:41:01;35.30;1.00
4354;DHT22;11018;51.258;6.806;2022-08-03T15:43:26;34.60;1.00
4354;DHT22;11018;51.258;6.806;2022-08-03T15:45:52;35.10;1.00
4354;DHT22;11018;51.258;6.806;2022-08-03T15:48:17;36.00;1.00
4354;DHT22;11018;51.258;6.806;2022-08-03T15:50:44;37.20;1.00
4354;DHT22;11018;51.258;6.806;2022-08-03T15:53:10;38.20;1.00
4354;DHT22;11018;51.258;6.806;2022-08-03T15:55:35;38.60;1.00
4354;DHT22;11018;51.258;6.806;2022-08-03T15:58:01;38.70;1.00
4354;DHT22;11018;51.258;6.806;2022-08-03T16:00:26;38.70;1.00
4354;DHT22;11018;51.258;6.806;2022-08-03T16:02:53;39.50;1.00
4354;DHT22;11018;51.258;6.806;2022-08-03T16:05:18;39.40;1.00
4354;DHT22;11018;51.258;6.806;2022-08-03T16:07:44;39.40;1.00
4354;DHT22;11018;51.258;6.806;2022-08-03T16:10:16;40.10;1.00
4354;DHT22;11018;51.258;6.806;2022-08-03T16:12:42;40.30;1.00
4354;DHT22;11018;51.258;6.806;2022-08-03T16:15:10;39.30;1.00
4354;DHT22;11018;51.258;6.806;2022-08-03T16:17:36;38.80;1.00